sensor_id;sensor_type;location;lat;lon;timestamp;temperature;humidity
43999;DHT22;51319;52.162;5.302;2023-07-20T00:02:05;17.30;96.20
43999;DHT22;51319;52.162;5.302;2023-07-20T00:04:34;17.20;96.20
43999;DHT22;51319;52.162;5.302;2023-07-20T00:07:01;17.10;96.40
43999;DHT22;51319;52.162;5.302;2023-07-20T00:09:28;17.00;96.50
43999;DHT22;51319;52.162;5.302;2023-07-20T00:11:55;16.90;96.90
43999;DHT22;51319;52.162;5.302;2023-07-20T00:14:22;16.90;97.10
43999;DHT22;51319;52.162;5.302;2023-07-20T00:16:50;16.90;97.50
43999;DHT22;51319;52.162;5.302;2023-07-20T00:19:24;16.80;97.60
43999;DHT22;51319;52.162;5.302;2023-07-20T00:21:52;16.80;97.70
43999;DHT22;51319;52.162;5.302;2023-07-20T00:24:19;16.70;97.80
43999;DHT22;51319;52.162;5.302;2023-07-20T00:26:46;16.70;97.80
43999;DHT22;51319;52.162;5.302;2023-07-20T00:29:13;16.70;97.90
43999;DHT22;51319;52.162;5.302;2023-07-20T00:31:40;16.70;97.90
43999;DHT22;51319;52.162;5.302;2023-07-20T00:34:07;16.70;98.00
43999;DHT22;51319;52.162;5.302;2023-07-20T00:36:34;16.70;98.10
43999;DHT22;51319;52.162;5.302;2023-07-20T00:39:02;16.70;98.10
43999;DHT22;51319;52.162;5.302;2023-07-20T00:41:29;16.70;98.10
43999;DHT22;51319;52.162;5.302;2023-07-20T00:43:56;16.60;98.10
43999;DHT22;51319;52.162;5.302;2023-07-20T00:46:24;16.60;98.10
43999;DHT22;51319;52.162;5.302;2023-07-20T00:48:54;16.60;98.10
43999;DHT22;51319;52.162;5.302;2023-07-20T00:51:23;16.50;98.10
43999;DHT22;51319;52.162;5.302;2023-07-20T00:53:52;16.40;98.20
43999;DHT22;51319;52.162;5.302;2023-07-20T00:56:20;16.40;98.50
43999;DHT22;51319;52.162;5.302;2023-07-20T00:58:48;16.30;98.30
43999;DHT22;51319;52.162;5.302;2023-07-20T01:01:15;16.20;98.50
43999;DHT22;51319;52.162;5.302;2023-07-20T01:03:43;16.20;98.60
43999;DHT22;51319;52.162;5.302;2023-07-20T01:09:02;16.10;98.90
43999;DHT22;51319;52.162;5.302;2023-07-20T01:11:44;16.10;98.90
43999;DHT22;51319;52.162;5.302;2023-07-20T01:14:14;16.00;98.70
43999;DHT22;51319;52.162;5.302;2023-07-20T01:16:42;15.90;98.80
43999;DHT22;51319;52.162;5.302;2023-07-20T01:19:09;15.90;98.90
43999;DHT22;51319;52.162;5.302;2023-07-20T01:24:42;15.80;99.20
43999;DHT22;51319;52.162;5.302;2023-07-20T01:32:31;15.70;99.20
43999;DHT22;51319;52.162;5.302;2023-07-20T01:34:58;15.70;99.30
43999;DHT22;51319;52.162;5.302;2023-07-20T01:37:27;15.60;99.40
43999;DHT22;51319;52.162;5.302;2023-07-20T01:39:56;15.60;99.60
43999;DHT22;51319;52.162;5.302;2023-07-20T01:42:24;15.60;99.60
43999;DHT22;51319;52.162;5.302;2023-07-20T01:44:52;15.60;99.70
43999;DHT22;51319;52.162;5.302;2023-07-20T01:47:22;15.50;99.70
43999;DHT22;51319;52.162;5.302;2023-07-20T01:49:49;15.50;99.70
43999;DHT22;51319;52.162;5.302;2023-07-20T01:52:16;15.40;99.80
43999;DHT22;51319;52.162;5.302;2023-07-20T01:54:43;15.40;99.90
43999;DHT22;51319;52.162;5.302;2023-07-20T01:57:11;15.40;99.90
43999;DHT22;51319;52.162;5.302;2023-07-20T01:59:38;15.30;99.90
43999;DHT22;51319;52.162;5.302;2023-07-20T02:02:05;15.30;99.90
43999;DHT22;51319;52.162;5.302;2023-07-20T02:04:32;15.30;99.90
43999;DHT22;51319;52.162;5.302;2023-07-20T02:06:59;15.30;99.90
43999;DHT22;51319;52.162;5.302;2023-07-20T02:09:26;15.20;99.90
43999;DHT22;51319;52.162;5.302;2023-07-20T02:11:53;15.20;99.90
43999;DHT22;51319;52.162;5.302;2023-07-20T02:14:20;15.20;99.90
43999;DHT22;51319;52.162;5.302;2023-07-20T02:16:49;15.10;99.90
43999;DHT22;51319;52.162;5.302;2023-07-20T02:19:18;15.00;99.90
43999;DHT22;51319;52.162;5.302;2023-07-20T02:21:45;15.00;99.90
43999;DHT22;51319;52.162;5.302;2023-07-20T02:24:13;15.00;99.90
43999;DHT22;51319;52.162;5.302;2023-07-20T02:26:40;15.00;99.90
43999;DHT22;51319;52.162;5.302;2023-07-20T02:29:07;15.00;99.90
43999;DHT22;51319;52.162;5.302;2023-07-20T02:31:34;14.90;99.90
43999;DHT22;51319;52.162;5.302;2023-07-20T02:34:05;14.90;99.90
43999;DHT22;51319;52.162;5.302;2023-07-20T02:36:32;14.90;99.90
43999;DHT22;51319;52.162;5.302;2023-07-20T02:38:59;14.80;99.90
43999;DHT22;51319;52.162;5.302;2023-07-20T02:41:27;14.80;99.90
43999;DHT22;51319;52.162;5.302;2023-07-20T02:43:53;14.70;99.90
43999;DHT22;51319;52.162;5.302;2023-07-20T02:46:21;14.70;99.90
43999;DHT22;51319;52.162;5.302;2023-07-20T02:48:48;14.60;99.90
43999;DHT22;51319;52.162;5.302;2023-07-20T02:51:15;14.60;99.90
43999;DHT22;51319;52.162;5.302;2023-07-20T02:53:42;14.50;99.90
43999;DHT22;51319;52.162;5.302;2023-07-20T02:56:09;14.50;99.90
43999;DHT22;51319;52.162;5.302;2023-07-20T02:58:40;14.50;99.90
43999;DHT22;51319;52.162;5.302;2023-07-20T03:01:10;14.40;99.90
43999;DHT22;51319;52.162;5.302;2023-07-20T03:03:37;14.40;99.90
43999;DHT22;51319;52.162;5.302;2023-07-20T03:06:05;14.40;99.90
43999;DHT22;51319;52.162;5.302;2023-07-20T03:08:33;14.40;99.90
43999;DHT22;51319;52.162;5.302;2023-07-20T03:11:00;14.40;99.90
43999;DHT22;51319;52.162;5.302;2023-07-20T03:13:28;14.30;99.90
43999;DHT22;51319;52.162;5.302;2023-07-20T03:15:55;14.20;99.90
43999;DHT22;51319;52.162;5.302;2023-07-20T03:18:21;14.20;99.90
43999;DHT22;51319;52.162;5.302;2023-07-20T03:20:48;14.20;99.90
43999;DHT22;51319;52.162;5.302;2023-07-20T03:23:15;14.20;99.90
43999;DHT22;51319;52.162;5.302;2023-07-20T03:25:43;14.10;99.90
43999;DHT22;51319;52.162;5.302;2023-07-20T03:28:10;14.10;99.90
43999;DHT22;51319;52.162;5.302;2023-07-20T03:30:37;14.00;99.90
43999;DHT22;51319;52.162;5.302;2023-07-20T03:33:04;14.00;99.90
43999;DHT22;51319;52.162;5.302;2023-07-20T03:35:32;14.00;99.90
43999;DHT22;51319;52.162;5.302;2023-07-20T03:37:59;13.90;99.90
43999;DHT22;51319;52.162;5.302;2023-07-20T03:40:25;13.90;99.90
43999;DHT22;51319;52.162;5.302;2023-07-20T03:42:58;13.90;99.90
43999;DHT22;51319;52.162;5.302;2023-07-20T03:45:24;13.80;99.90
43999;DHT22;51319;52.162;5.302;2023-07-20T03:47:51;13.80;99.90
43999;DHT22;51319;52.162;5.302;2023-07-20T03:50:19;13.80;99.90
43999;DHT22;51319;52.162;5.302;2023-07-20T03:52:46;13.80;99.90
43999;DHT22;51319;52.162;5.302;2023-07-20T03:55:13;13.80;99.90
43999;DHT22;51319;52.162;5.302;2023-07-20T03:57:40;13.80;99.90
43999;DHT22;51319;52.162;5.302;2023-07-20T04:00:07;13.80;99.90
43999;DHT22;51319;52.162;5.302;2023-07-20T04:02:35;13.80;99.90
43999;DHT22;51319;52.162;5.302;2023-07-20T04:05:02;13.80;99.90
43999;DHT22;51319;52.162;5.302;2023-07-20T04:07:29;13.80;99.90
43999;DHT22;51319;52.162;5.302;2023-07-20T04:09:56;13.80;99.90
43999;DHT22;51319;52.162;5.302;2023-07-20T04:12:23;13.80;99.90
43999;DHT22;51319;52.162;5.302;2023-07-20T04:14:50;13.90;99.90
43999;DHT22;51319;52.162;5.302;2023-07-20T04:17:17;13.90;99.90
43999;DHT22;51319;52.162;5.302;2023-07-20T04:19:44;13.90;99.90
43999;DHT22;51319;52.162;5.302;2023-07-20T04:22:11;13.90;99.90
43999;DHT22;51319;52.162;5.302;2023-07-20T04:24:38;13.80;99.90
43999;DHT22;51319;52.162;5.302;2023-07-20T04:27:05;13.80;99.90
43999;DHT22;51319;52.162;5.302;2023-07-20T04:29:32;13.80;99.90
43999;DHT22;51319;52.162;5.302;2023-07-20T04:31:59;13.80;99.90
43999;DHT22;51319;52.162;5.302;2023-07-20T04:34:26;13.80;99.90
43999;DHT22;51319;52.162;5.302;2023-07-20T04:36:53;13.80;99.90
43999;DHT22;51319;52.162;5.302;2023-07-20T04:39:20;13.80;99.90
43999;DHT22;51319;52.162;5.302;2023-07-20T04:41:57;13.90;99.90
43999;DHT22;51319;52.162;5.302;2023-07-20T04:44:24;14.00;99.90
43999;DHT22;51319;52.162;5.302;2023-07-20T04:46:51;14.10;99.90
43999;DHT22;51319;52.162;5.302;2023-07-20T04:49:18;14.10;99.90
43999;DHT22;51319;52.162;5.302;2023-07-20T04:51:45;14.20;99.90
43999;DHT22;51319;52.162;5.302;2023-07-20T04:54:12;14.30;99.90
43999;DHT22;51319;52.162;5.302;2023-07-20T04:56:40;14.30;99.90
43999;DHT22;51319;52.162;5.302;2023-07-20T04:59:07;14.50;99.90
43999;DHT22;51319;52.162;5.302;2023-07-20T05:01:34;14.60;99.90
43999;DHT22;51319;52.162;5.302;2023-07-20T05:04:01;14.70;99.90
43999;DHT22;51319;52.162;5.302;2023-07-20T05:06:28;14.80;99.90
43999;DHT22;51319;52.162;5.302;2023-07-20T05:08:55;14.80;99.90
43999;DHT22;51319;52.162;5.302;2023-07-20T05:11:22;14.80;99.90
43999;DHT22;51319;52.162;5.302;2023-07-20T05:13:49;14.80;99.90
43999;DHT22;51319;52.162;5.302;2023-07-20T05:16:16;14.80;99.90
43999;DHT22;51319;52.162;5.302;2023-07-20T05:18:44;14.80;99.90
43999;DHT22;51319;52.162;5.302;2023-07-20T05:21:11;14.90;99.90
43999;DHT22;51319;52.162;5.302;2023-07-20T05:23:38;15.00;99.90
43999;DHT22;51319;52.162;5.302;2023-07-20T05:26:05;15.00;99.90
43999;DHT22;51319;52.162;5.302;2023-07-20T05:28:32;15.10;99.90
43999;DHT22;51319;52.162;5.302;2023-07-20T05:31:02;15.10;99.90
43999;DHT22;51319;52.162;5.302;2023-07-20T05:33:29;15.10;99.90
43999;DHT22;51319;52.162;5.302;2023-07-20T05:35:56;15.20;99.90
43999;DHT22;51319;52.162;5.302;2023-07-20T05:38:23;15.30;99.90
43999;DHT22;51319;52.162;5.302;2023-07-20T05:40:50;15.40;99.90
43999;DHT22;51319;52.162;5.302;2023-07-20T05:43:17;15.60;99.90
43999;DHT22;51319;52.162;5.302;2023-07-20T05:45:44;15.80;99.90
43999;DHT22;51319;52.162;5.302;2023-07-20T05:48:12;16.10;99.90
43999;DHT22;51319;52.162;5.302;2023-07-20T05:50:43;16.30;99.90
43999;DHT22;51319;52.162;5.302;2023-07-20T05:53:10;16.60;99.90
43999;DHT22;51319;52.162;5.302;2023-07-20T05:55:37;16.90;99.20
43999;DHT22;51319;52.162;5.302;2023-07-20T05:58:06;17.20;98.10
43999;DHT22;51319;52.162;5.302;2023-07-20T06:00:33;17.50;97.40
43999;DHT22;51319;52.162;5.302;2023-07-20T06:03:00;17.80;96.70
43999;DHT22;51319;52.162;5.302;2023-07-20T06:05:26;18.00;96.00
43999;DHT22;51319;52.162;5.302;2023-07-20T06:07:55;18.30;95.30
43999;DHT22;51319;52.162;5.302;2023-07-20T06:10:24;18.60;94.50
43999;DHT22;51319;52.162;5.302;2023-07-20T06:12:51;18.90;93.70
43999;DHT22;51319;52.162;5.302;2023-07-20T06:15:30;19.30;92.80
43999;DHT22;51319;52.162;5.302;2023-07-20T06:17:58;19.50;91.90
43999;DHT22;51319;52.162;5.302;2023-07-20T06:20:25;19.90;91.30
43999;DHT22;51319;52.162;5.302;2023-07-20T06:22:52;20.10;90.10
43999;DHT22;51319;52.162;5.302;2023-07-20T06:25:19;20.50;88.60
43999;DHT22;51319;52.162;5.302;2023-07-20T06:27:49;20.90;86.60
43999;DHT22;51319;52.162;5.302;2023-07-20T06:30:17;21.10;84.30
43999;DHT22;51319;52.162;5.302;2023-07-20T06:32:45;21.40;82.20
43999;DHT22;51319;52.162;5.302;2023-07-20T06:35:12;21.60;79.80
43999;DHT22;51319;52.162;5.302;2023-07-20T06:37:39;21.40;78.00
43999;DHT22;51319;52.162;5.302;2023-07-20T06:40:07;21.10;78.90
43999;DHT22;51319;52.162;5.302;2023-07-20T06:42:38;21.60;77.60
43999;DHT22;51319;52.162;5.302;2023-07-20T06:45:08;22.00;75.90
43999;DHT22;51319;52.162;5.302;2023-07-20T06:47:38;21.90;74.20
43999;DHT22;51319;52.162;5.302;2023-07-20T06:50:09;21.30;74.70
43999;DHT22;51319;52.162;5.302;2023-07-20T06:52:43;20.70;75.90
43999;DHT22;51319;52.162;5.302;2023-07-20T06:55:10;20.80;76.00
43999;DHT22;51319;52.162;5.302;2023-07-20T06:57:37;20.40;76.30
43999;DHT22;51319;52.162;5.302;2023-07-20T07:00:04;20.00;77.60
43999;DHT22;51319;52.162;5.302;2023-07-20T07:02:33;19.60;79.00
43999;DHT22;51319;52.162;5.302;2023-07-20T07:05:02;19.30;80.40
43999;DHT22;51319;52.162;5.302;2023-07-20T07:07:46;19.00;81.50
43999;DHT22;51319;52.162;5.302;2023-07-20T07:10:13;18.80;82.60
43999;DHT22;51319;52.162;5.302;2023-07-20T07:12:40;18.70;83.80
43999;DHT22;51319;52.162;5.302;2023-07-20T07:15:08;18.60;84.80
43999;DHT22;51319;52.162;5.302;2023-07-20T07:17:37;18.60;85.90
43999;DHT22;51319;52.162;5.302;2023-07-20T07:20:06;19.10;86.90
43999;DHT22;51319;52.162;5.302;2023-07-20T07:22:47;19.50;85.60
43999;DHT22;51319;52.162;5.302;2023-07-20T07:25:19;19.60;84.10
43999;DHT22;51319;52.162;5.302;2023-07-20T07:27:49;19.40;83.60
43999;DHT22;51319;52.162;5.302;2023-07-20T07:30:19;19.20;83.50
43999;DHT22;51319;52.162;5.302;2023-07-20T07:32:46;19.10;83.50
43999;DHT22;51319;52.162;5.302;2023-07-20T07:35:13;19.00;83.20
43999;DHT22;51319;52.162;5.302;2023-07-20T07:37:40;19.10;83.20
43999;DHT22;51319;52.162;5.302;2023-07-20T07:40:10;19.60;80.50
43999;DHT22;51319;52.162;5.302;2023-07-20T07:42:37;20.80;78.60
43999;DHT22;51319;52.162;5.302;2023-07-20T07:45:05;21.70;75.00
43999;DHT22;51319;52.162;5.302;2023-07-20T07:47:32;23.00;71.60
43999;DHT22;51319;52.162;5.302;2023-07-20T07:49:59;24.20;68.30
43999;DHT22;51319;52.162;5.302;2023-07-20T07:52:26;25.10;63.70
43999;DHT22;51319;52.162;5.302;2023-07-20T07:54:53;25.90;60.30
43999;DHT22;51319;52.162;5.302;2023-07-20T07:57:20;26.60;57.60
43999;DHT22;51319;52.162;5.302;2023-07-20T07:59:47;27.20;54.40
43999;DHT22;51319;52.162;5.302;2023-07-20T08:02:14;27.70;53.20
43999;DHT22;51319;52.162;5.302;2023-07-20T08:04:42;28.20;52.20
43999;DHT22;51319;52.162;5.302;2023-07-20T08:07:09;28.60;52.60
43999;DHT22;51319;52.162;5.302;2023-07-20T08:09:36;28.90;51.90
43999;DHT22;51319;52.162;5.302;2023-07-20T08:12:04;29.00;51.00
43999;DHT22;51319;52.162;5.302;2023-07-20T08:14:31;29.30;50.00
43999;DHT22;51319;52.162;5.302;2023-07-20T08:16:58;29.60;48.20
43999;DHT22;51319;52.162;5.302;2023-07-20T08:19:25;29.80;47.10
43999;DHT22;51319;52.162;5.302;2023-07-20T08:21:52;28.40;46.20
43999;DHT22;51319;52.162;5.302;2023-07-20T08:24:19;27.30;48.20
43999;DHT22;51319;52.162;5.302;2023-07-20T08:26:46;26.90;48.20
43999;DHT22;51319;52.162;5.302;2023-07-20T08:29:13;27.40;48.30
43999;DHT22;51319;52.162;5.302;2023-07-20T08:31:40;27.50;48.40
43999;DHT22;51319;52.162;5.302;2023-07-20T08:34:07;28.20;47.50
43999;DHT22;51319;52.162;5.302;2023-07-20T08:36:54;29.20;46.80
43999;DHT22;51319;52.162;5.302;2023-07-20T08:39:22;30.30;45.30
43999;DHT22;51319;52.162;5.302;2023-07-20T08:41:49;31.10;43.40
43999;DHT22;51319;52.162;5.302;2023-07-20T08:44:19;31.50;42.20
43999;DHT22;51319;52.162;5.302;2023-07-20T08:46:49;31.90;41.40
43999;DHT22;51319;52.162;5.302;2023-07-20T08:49:17;32.20;40.60
43999;DHT22;51319;52.162;5.302;2023-07-20T08:54:14;32.50;40.00
43999;DHT22;51319;52.162;5.302;2023-07-20T08:56:45;32.80;39.10
43999;DHT22;51319;52.162;5.302;2023-07-20T08:59:16;32.90;38.20
43999;DHT22;51319;52.162;5.302;2023-07-20T09:01:44;33.40;39.00
43999;DHT22;51319;52.162;5.302;2023-07-20T09:04:12;33.80;38.00
43999;DHT22;51319;52.162;5.302;2023-07-20T09:06:40;34.10;37.30
43999;DHT22;51319;52.162;5.302;2023-07-20T09:09:11;34.20;36.70
43999;DHT22;51319;52.162;5.302;2023-07-20T09:11:38;34.40;35.90
43999;DHT22;51319;52.162;5.302;2023-07-20T09:14:09;34.50;34.70
43999;DHT22;51319;52.162;5.302;2023-07-20T09:16:50;34.60;34.90
43999;DHT22;51319;52.162;5.302;2023-07-20T09:19:17;35.00;34.90
43999;DHT22;51319;52.162;5.302;2023-07-20T09:21:49;35.30;34.50
43999;DHT22;51319;52.162;5.302;2023-07-20T09:24:18;35.60;34.90
43999;DHT22;51319;52.162;5.302;2023-07-20T09:26:47;35.70;34.30
43999;DHT22;51319;52.162;5.302;2023-07-20T09:29:21;35.70;33.70
43999;DHT22;51319;52.162;5.302;2023-07-20T09:32:01;35.60;34.00
43999;DHT22;51319;52.162;5.302;2023-07-20T09:34:32;35.90;33.80
43999;DHT22;51319;52.162;5.302;2023-07-20T09:37:02;36.20;33.40
43999;DHT22;51319;52.162;5.302;2023-07-20T09:39:30;36.40;33.10
43999;DHT22;51319;52.162;5.302;2023-07-20T09:42:00;36.50;31.60
43999;DHT22;51319;52.162;5.302;2023-07-20T09:44:43;36.70;31.60
43999;DHT22;51319;52.162;5.302;2023-07-20T09:47:13;37.00;31.80
43999;DHT22;51319;52.162;5.302;2023-07-20T09:50:00;37.20;31.90
43999;DHT22;51319;52.162;5.302;2023-07-20T09:52:31;37.20;32.60
43999;DHT22;51319;52.162;5.302;2023-07-20T09:55:02;37.40;31.30
43999;DHT22;51319;52.162;5.302;2023-07-20T09:57:29;37.20;31.90
43999;DHT22;51319;52.162;5.302;2023-07-20T09:59:57;37.10;31.80
43999;DHT22;51319;52.162;5.302;2023-07-20T10:02:46;37.50;31.60
43999;DHT22;51319;52.162;5.302;2023-07-20T10:05:14;37.90;31.00
43999;DHT22;51319;52.162;5.302;2023-07-20T10:07:48;38.30;30.60
43999;DHT22;51319;52.162;5.302;2023-07-20T10:10:16;38.50;30.40
43999;DHT22;51319;52.162;5.302;2023-07-20T10:12:48;38.60;31.60
43999;DHT22;51319;52.162;5.302;2023-07-20T10:15:30;38.50;30.80
43999;DHT22;51319;52.162;5.302;2023-07-20T10:18:17;38.60;30.00
43999;DHT22;51319;52.162;5.302;2023-07-20T10:20:49;38.60;29.60
43999;DHT22;51319;52.162;5.302;2023-07-20T10:23:22;38.60;29.50
43999;DHT22;51319;52.162;5.302;2023-07-20T10:25:50;38.60;29.50
43999;DHT22;51319;52.162;5.302;2023-07-20T10:28:17;38.90;29.10
43999;DHT22;51319;52.162;5.302;2023-07-20T10:30:45;39.20;29.70
43999;DHT22;51319;52.162;5.302;2023-07-20T10:33:12;38.90;28.80
43999;DHT22;51319;52.162;5.302;2023-07-20T10:35:53;37.70;28.80
43999;DHT22;51319;52.162;5.302;2023-07-20T10:38:20;36.20;29.80
43999;DHT22;51319;52.162;5.302;2023-07-20T10:41:04;34.70;30.60
43999;DHT22;51319;52.162;5.302;2023-07-20T10:43:46;33.30;31.00
43999;DHT22;51319;52.162;5.302;2023-07-20T10:46:13;34.20;30.60
43999;DHT22;51319;52.162;5.302;2023-07-20T10:49:00;35.50;30.10
43999;DHT22;51319;52.162;5.302;2023-07-20T10:51:28;36.50;30.30
43999;DHT22;51319;52.162;5.302;2023-07-20T10:53:56;36.90;30.60
43999;DHT22;51319;52.162;5.302;2023-07-20T10:56:27;37.10;29.20
43999;DHT22;51319;52.162;5.302;2023-07-20T10:58:58;37.60;29.20
43999;DHT22;51319;52.162;5.302;2023-07-20T11:01:30;37.90;29.30
43999;DHT22;51319;52.162;5.302;2023-07-20T11:03:59;38.20;28.50
43999;DHT22;51319;52.162;5.302;2023-07-20T11:06:31;38.90;28.00
43999;DHT22;51319;52.162;5.302;2023-07-20T11:09:08;39.20;28.00
43999;DHT22;51319;52.162;5.302;2023-07-20T11:11:39;38.80;28.10
43999;DHT22;51319;52.162;5.302;2023-07-20T11:14:25;38.30;28.10
43999;DHT22;51319;52.162;5.302;2023-07-20T11:16:53;37.60;28.60
43999;DHT22;51319;52.162;5.302;2023-07-20T11:19:25;37.00;29.10
43999;DHT22;51319;52.162;5.302;2023-07-20T11:21:56;36.50;29.00
43999;DHT22;51319;52.162;5.302;2023-07-20T11:24:30;36.00;29.00
43999;DHT22;51319;52.162;5.302;2023-07-20T11:26:58;35.40;30.10
43999;DHT22;51319;52.162;5.302;2023-07-20T11:29:26;34.80;30.80
43999;DHT22;51319;52.162;5.302;2023-07-20T11:32:01;34.50;30.90
43999;DHT22;51319;52.162;5.302;2023-07-20T11:34:32;34.70;30.90
43999;DHT22;51319;52.162;5.302;2023-07-20T11:37:00;35.20;30.40
43999;DHT22;51319;52.162;5.302;2023-07-20T11:39:30;35.60;30.60
43999;DHT22;51319;52.162;5.302;2023-07-20T11:41:58;35.90;30.80
43999;DHT22;51319;52.162;5.302;2023-07-20T11:44:28;36.50;30.30
43999;DHT22;51319;52.162;5.302;2023-07-20T11:49:28;36.10;30.60
43999;DHT22;51319;52.162;5.302;2023-07-20T11:52:17;36.20;31.10
43999;DHT22;51319;52.162;5.302;2023-07-20T11:54:44;36.30;31.40
43999;DHT22;51319;52.162;5.302;2023-07-20T11:57:19;35.30;31.80
43999;DHT22;51319;52.162;5.302;2023-07-20T12:00:01;35.70;31.90
43999;DHT22;51319;52.162;5.302;2023-07-20T12:02:31;34.90;30.50
43999;DHT22;51319;52.162;5.302;2023-07-20T12:04:59;34.00;31.70
43999;DHT22;51319;52.162;5.302;2023-07-20T12:07:28;33.00;32.20
43999;DHT22;51319;52.162;5.302;2023-07-20T12:10:05;32.20;33.00
43999;DHT22;51319;52.162;5.302;2023-07-20T12:12:33;31.70;33.80
43999;DHT22;51319;52.162;5.302;2023-07-20T12:15:19;31.30;34.30
43999;DHT22;51319;52.162;5.302;2023-07-20T12:17:49;31.30;35.30
43999;DHT22;51319;52.162;5.302;2023-07-20T12:20:34;31.50;36.10
43999;DHT22;51319;52.162;5.302;2023-07-20T12:23:09;32.60;35.10
43999;DHT22;51319;52.162;5.302;2023-07-20T12:25:38;33.80;34.10
43999;DHT22;51319;52.162;5.302;2023-07-20T12:28:19;34.20;33.10
43999;DHT22;51319;52.162;5.302;2023-07-20T12:30:47;34.40;33.10
43999;DHT22;51319;52.162;5.302;2023-07-20T12:33:23;35.10;32.20
43999;DHT22;51319;52.162;5.302;2023-07-20T12:35:50;35.70;32.00
43999;DHT22;51319;52.162;5.302;2023-07-20T12:38:22;36.20;32.00
43999;DHT22;51319;52.162;5.302;2023-07-20T12:40:50;36.70;30.40
43999;DHT22;51319;52.162;5.302;2023-07-20T12:43:18;36.60;29.50
43999;DHT22;51319;52.162;5.302;2023-07-20T12:45:46;36.10;29.90
43999;DHT22;51319;52.162;5.302;2023-07-20T12:48:13;35.70;29.80
43999;DHT22;51319;52.162;5.302;2023-07-20T12:50:40;35.20;31.50
43999;DHT22;51319;52.162;5.302;2023-07-20T12:53:08;34.70;31.50
43999;DHT22;51319;52.162;5.302;2023-07-20T12:55:35;34.50;32.90
43999;DHT22;51319;52.162;5.302;2023-07-20T12:58:02;34.30;33.50
43999;DHT22;51319;52.162;5.302;2023-07-20T13:00:29;33.90;32.80
43999;DHT22;51319;52.162;5.302;2023-07-20T13:02:56;33.50;32.50
43999;DHT22;51319;52.162;5.302;2023-07-20T13:05:26;33.20;33.90
43999;DHT22;51319;52.162;5.302;2023-07-20T13:07:55;33.20;34.00
43999;DHT22;51319;52.162;5.302;2023-07-20T13:10:26;33.80;33.60
43999;DHT22;51319;52.162;5.302;2023-07-20T13:12:53;34.10;33.40
43999;DHT22;51319;52.162;5.302;2023-07-20T13:15:20;34.40;33.10
43999;DHT22;51319;52.162;5.302;2023-07-20T13:17:47;35.00;33.00
43999;DHT22;51319;52.162;5.302;2023-07-20T13:20:14;35.00;32.80
43999;DHT22;51319;52.162;5.302;2023-07-20T13:22:41;35.00;30.90
43999;DHT22;51319;52.162;5.302;2023-07-20T13:25:08;34.40;32.00
43999;DHT22;51319;52.162;5.302;2023-07-20T13:27:36;33.40;32.20
43999;DHT22;51319;52.162;5.302;2023-07-20T13:30:05;32.80;33.80
43999;DHT22;51319;52.162;5.302;2023-07-20T13:32:36;32.50;34.80
43999;DHT22;51319;52.162;5.302;2023-07-20T13:35:04;32.30;35.30
43999;DHT22;51319;52.162;5.302;2023-07-20T13:37:31;31.90;36.00
43999;DHT22;51319;52.162;5.302;2023-07-20T13:39:59;31.60;36.40
43999;DHT22;51319;52.162;5.302;2023-07-20T13:42:26;31.20;37.00
43999;DHT22;51319;52.162;5.302;2023-07-20T13:44:53;30.80;37.10
43999;DHT22;51319;52.162;5.302;2023-07-20T13:47:22;30.50;37.70
43999;DHT22;51319;52.162;5.302;2023-07-20T13:49:49;30.20;37.70
43999;DHT22;51319;52.162;5.302;2023-07-20T13:52:30;29.90;38.00
43999;DHT22;51319;52.162;5.302;2023-07-20T13:55:00;29.70;38.80
43999;DHT22;51319;52.162;5.302;2023-07-20T13:57:31;29.50;39.70
43999;DHT22;51319;52.162;5.302;2023-07-20T14:00:02;29.30;39.60
43999;DHT22;51319;52.162;5.302;2023-07-20T14:02:32;29.30;39.70
43999;DHT22;51319;52.162;5.302;2023-07-20T14:05:02;29.20;39.70
43999;DHT22;51319;52.162;5.302;2023-07-20T14:07:32;29.50;40.90
43999;DHT22;51319;52.162;5.302;2023-07-20T14:10:08;29.60;40.10
43999;DHT22;51319;52.162;5.302;2023-07-20T14:12:47;29.50;39.60
43999;DHT22;51319;52.162;5.302;2023-07-20T14:15:14;29.20;39.70
43999;DHT22;51319;52.162;5.302;2023-07-20T14:17:41;29.20;39.90
43999;DHT22;51319;52.162;5.302;2023-07-20T14:20:08;29.40;39.30
43999;DHT22;51319;52.162;5.302;2023-07-20T14:22:38;29.40;38.80
43999;DHT22;51319;52.162;5.302;2023-07-20T14:25:06;29.60;40.70
43999;DHT22;51319;52.162;5.302;2023-07-20T14:27:35;29.80;40.00
43999;DHT22;51319;52.162;5.302;2023-07-20T14:30:04;29.60;39.60
43999;DHT22;51319;52.162;5.302;2023-07-20T14:32:35;29.40;38.90
43999;DHT22;51319;52.162;5.302;2023-07-20T14:35:02;29.30;38.50
43999;DHT22;51319;52.162;5.302;2023-07-20T14:37:29;29.20;38.40
43999;DHT22;51319;52.162;5.302;2023-07-20T14:39:56;29.20;38.90
43999;DHT22;51319;52.162;5.302;2023-07-20T14:42:23;29.20;39.10
43999;DHT22;51319;52.162;5.302;2023-07-20T14:44:52;29.20;38.30
43999;DHT22;51319;52.162;5.302;2023-07-20T14:47:19;29.10;38.70
43999;DHT22;51319;52.162;5.302;2023-07-20T14:49:46;29.00;38.90
43999;DHT22;51319;52.162;5.302;2023-07-20T14:52:13;28.80;40.20
43999;DHT22;51319;52.162;5.302;2023-07-20T14:54:42;28.90;40.20
43999;DHT22;51319;52.162;5.302;2023-07-20T14:57:12;28.90;37.60
43999;DHT22;51319;52.162;5.302;2023-07-20T14:59:42;28.90;38.10
43999;DHT22;51319;52.162;5.302;2023-07-20T15:02:11;28.70;38.90
43999;DHT22;51319;52.162;5.302;2023-07-20T15:04:46;28.50;39.80
43999;DHT22;51319;52.162;5.302;2023-07-20T15:07:13;28.30;39.40
43999;DHT22;51319;52.162;5.302;2023-07-20T15:09:40;28.20;40.20
43999;DHT22;51319;52.162;5.302;2023-07-20T15:12:09;28.20;40.30
43999;DHT22;51319;52.162;5.302;2023-07-20T15:14:39;28.20;40.40
43999;DHT22;51319;52.162;5.302;2023-07-20T15:17:07;28.10;40.20
43999;DHT22;51319;52.162;5.302;2023-07-20T15:19:34;28.00;40.20
43999;DHT22;51319;52.162;5.302;2023-07-20T15:22:03;27.90;40.90
43999;DHT22;51319;52.162;5.302;2023-07-20T15:24:32;27.80;40.60
43999;DHT22;51319;52.162;5.302;2023-07-20T15:26:59;27.80;40.30
43999;DHT22;51319;52.162;5.302;2023-07-20T15:29:29;27.60;40.70
43999;DHT22;51319;52.162;5.302;2023-07-20T15:31:58;27.50;41.20
43999;DHT22;51319;52.162;5.302;2023-07-20T15:34:26;27.40;41.60
43999;DHT22;51319;52.162;5.302;2023-07-20T15:36:54;27.40;42.00
43999;DHT22;51319;52.162;5.302;2023-07-20T15:39:21;27.30;42.90
43999;DHT22;51319;52.162;5.302;2023-07-20T15:41:48;27.20;43.50
43999;DHT22;51319;52.162;5.302;2023-07-20T15:44:15;27.00;43.10
43999;DHT22;51319;52.162;5.302;2023-07-20T15:46:46;26.80;44.00
43999;DHT22;51319;52.162;5.302;2023-07-20T15:49:15;26.70;44.40
43999;DHT22;51319;52.162;5.302;2023-07-20T15:51:43;26.50;44.00
43999;DHT22;51319;52.162;5.302;2023-07-20T15:54:15;26.60;44.10
43999;DHT22;51319;52.162;5.302;2023-07-20T15:56:43;26.60;44.90
43999;DHT22;51319;52.162;5.302;2023-07-20T15:59:11;26.50;45.00